• Join FlightAware (Why Join?)
  • Login
  • US Flag 
08:01AM EDT


 

Airport Tracker/Info


-or-


 

Live Flight TrackerFlight Track Log ✈ DAL6068 ✈ 13-Oct-2013 ✈ KJFK - KCHS

Flight Track Log - Related Links

Times and Time Zones

All times are in EDT time to prevent confusion due to time zone crossing. See the DAL6068 flight status page for this flight to view local times or setup timezone preferences in your user account.

Time Position Orientation Groundspeed Altitude Reporting Facility
EDT Latitude Longitude Course Direction KTS MPH feet Rate Location/Type
08:29AM 40.6333 -73.8500 226° Southwest 191 220 1,500  Level New York TRACON
08:31AM 40.3756 -74.0203 207° Southwest  Level Estimated
08:31AM 40.5394 -73.9553 220° Southwest 216 249 6,300  Level New York Center
08:32AM 40.2874 -74.1003 201° Southwest  Level Estimated
08:32AM 40.4947 -73.9942 213° Southwest 216 249 8,000  Level New York Center
08:33AM 40.1992 -74.1801 217° Southwest  Level Estimated
08:33AM 40.4186 -74.0369 203° Southwest 254 292 9,000  Level New York Center
08:34AM 40.1110 -74.2598 226° Southwest  Level Estimated
08:34AM 40.3508 -74.0744 203° Southwest 293 337 11,000  Level New York Center
08:35AM 40.2683 -74.1194 203° Southwest 301 346 13,100 1,860 Climbing New York Center
08:36AM 40.1878 -74.1617 202° Southwest 301 346 14,800 1,380 Climbing New York Center
08:38AM 39.9936 -74.2644 202° Southwest 309 356 18,000 1,260 Climbing Washington Center
08:39AM 39.9172 -74.3364 216° Southwest 323 372 19,200 1,020 Climbing Washington Center
08:40AM 39.8492 -74.4022 217° Southwest 338 389 20,100 1,020 Climbing Washington Center
08:41AM 39.7731 -74.4872 221° Southwest 354 407 21,300 1,260 Climbing Washington Center
08:42AM 39.7031 -74.5828 226° Southwest 367 422 22,600 1,380 Climbing Washington Center
08:43AM 39.6289 -74.6781 225° Southwest 372 428 24,100 1,380 Climbing Washington Center
08:44AM 39.5586 -74.7733 226° Southwest 377 434 25,500 1,440 Climbing Washington Center
08:45AM 39.4842 -74.8603 222° Southwest 377 434 27,000 1,440 Climbing Washington Center
08:46AM 39.4011 -74.9256 211° Southwest 365 420 28,400 1,260 Climbing Washington Center
08:47AM 39.3203 -74.9906 212° Southwest 358 412 29,600 1,080 Climbing Washington Center
08:48AM 39.2392 -75.0583 213° Southwest 353 406 30,600 960 Climbing Washington Center
08:49AM 39.1542 -75.1286 213° Southwest 358 412 31,600 660 Climbing Washington Center
08:50AM 39.0669 -75.1958 211° Southwest 364 419 32,000 180 Climbing Washington Center
08:51AM 38.9775 -75.2711 213° Southwest 376 433 32,000  Level Washington Center
08:52AM 38.8839 -75.3489 213° Southwest 391 450 32,000  Level Washington Center
08:53AM 38.7861 -75.4211 210° Southwest 402 463 32,000  Level Washington Center
08:54AM 38.6903 -75.4933 210° Southwest 408 470 32,000  Level Washington Center
08:55AM 38.5964 -75.5706 213° Southwest 408 470 32,000  Level Washington Center
08:56AM 38.5025 -75.6475 213° Southwest 408 470 32,000  Level Washington Center
08:57AM 38.4086 -75.7189 211° Southwest 408 470 32,000  Level Washington Center
08:58AM 38.3022 -75.7981 210° Southwest 403 464 32,000  Level Washington Center
08:59AM 38.2125 -75.8719 213° Southwest 403 464 32,000  Level Washington Center
09:00AM 38.1183 -75.9428 211° Southwest 403 464 32,000  Level Washington Center
09:01AM 38.0222 -76.0161 211° Southwest 403 464 32,000  Level Washington Center
09:02AM 37.9322 -76.0867 212° Southwest 403 464 32,000  Level Washington Center
09:03AM 37.8403 -76.1597 212° Southwest 403 464 32,000  Level Washington Center
09:04AM 37.7503 -76.2275 211° Southwest 397 457 32,000  Level Washington Center
09:05AM 37.6581 -76.2975 211° Southwest 397 457 32,000  Level Washington Center
09:06AM 37.5658 -76.3700 212° Southwest 391 450 32,000  Level Washington Center
09:07AM 37.4778 -76.4344 210° Southwest 391 450 32,000  Level Washington Center
09:08AM 37.3875 -76.5042 212° Southwest 386 444 32,000  Level Washington Center
09:09AM 37.2994 -76.5708 211° Southwest 386 444 32,000  Level Washington Center
09:10AM 37.2092 -76.6375 210° Southwest 381 438 32,000  Level Washington Center
09:11AM 37.1189 -76.7042 210° Southwest 381 438 32,000  Level Washington Center
09:12AM 37.0328 -76.7731 213° Southwest 381 438 32,000  Level Washington Center
09:13AM 36.9444 -76.8392 211° Southwest 381 438 32,000  Level Washington Center
09:14AM 36.8561 -76.9081 212° Southwest 381 438 32,000  Level Washington Center
09:15AM 36.7678 -76.9739 211° Southwest 381 438 32,000  Level Washington Center
09:16AM 36.6794 -77.0422 212° Southwest 381 438 32,000  Level Washington Center
09:17AM 36.5992 -77.1211 218° Southwest 376 433 32,000  Level Washington Center
09:18AM 36.5167 -77.1969 216° Southwest 376 433 32,000  Level Washington Center
09:19AM 36.4364 -77.2728 217° Southwest 371 427 32,000  Level Washington Center
09:20AM 36.3539 -77.3508 217° Southwest 371 427 32,000  Level Washington Center
09:21AM 36.2733 -77.4289 218° Southwest 371 427 32,000  Level Washington Center
09:22AM 36.2036 -77.4967 218° Southwest 371 427 32,000  Level Washington Center
09:23AM 36.1231 -77.5694 216° Southwest 371 427 32,000  Level Washington Center
09:24AM 36.0403 -77.6469 217° Southwest 371 427 32,000  Level Washington Center
09:25AM 35.9578 -77.7219 216° Southwest 371 427 32,000  Level Washington Center
09:26AM 35.8708 -77.7886 212° Southwest 371 427 32,000 -240 Level Washington Center
09:27AM 35.7861 -77.8556 213° Southwest 371 427 31,600 -480 Descending Washington Center
09:28AM 35.6972 -77.9247 212° Southwest 376 433 31,100 -600 Descending Washington Center
09:29AM 35.6083 -77.9936 212° Southwest 376 433 30,500 -600 Descending Washington Center
09:30AM 35.5172 -78.0647 212° Southwest 381 438 29,900 -600 Descending Washington Center
09:31AM 35.4300 -78.1336 213° Southwest 381 438 29,400 -600 Descending Washington Center
09:32AM 35.3411 -78.1994 211° Southwest 381 438 28,800 -720 Descending Washington Center
09:33AM 35.2519 -78.2678 212° Southwest 381 438 28,000 -420 Descending Washington Center
09:34AM 35.1669 -78.3336 212° Southwest 376 433 28,000  Level Washington Center
09:35AM 35.0819 -78.4017 213° Southwest 376 433 28,000  Level Washington Center
09:36AM 34.9969 -78.4672 212° Southwest 376 433 28,000  Level Washington Center
09:37AM 34.9119 -78.5300 211° Southwest 376 433 28,000  Level Washington Center
09:38AM 34.8225 -78.6028 214° Southwest 371 427 28,000  Level Washington Center
09:39AM 34.7481 -78.6556 210° Southwest 354 407 28,000  Level Washington Center
09:41AM 34.6197 -78.7553 213° Southwest 361 415 28,000  Level Jacksonville Center
09:42AM 34.5342 -78.8172 211° Southwest 361 415 28,000  Level Jacksonville Center
09:43AM 34.4531 -78.8889 216° Southwest 361 415 28,000  Level Jacksonville Center
09:44AM 34.3672 -78.9508 211° Southwest 361 415 28,000 -540 Level Jacksonville Center
09:45AM 34.2797 -79.0150 211° Southwest 366 421 27,000 -1,200 Descending Jacksonville Center
09:46AM 34.1892 -79.0592 202° Southwest 356 410 25,600 -1,440 Descending Jacksonville Center
09:47AM 34.0944 -79.1036 201° Southwest 361 415 24,200 -1,440 Descending Jacksonville Center
09:48AM 34.0061 -79.1425 200° South 356 410 22,800 -1,440 Descending Jacksonville Center
09:49AM 33.9217 -79.1786 200° South 340 391 21,400 -1,620 Descending Jacksonville Center
09:50AM 33.8392 -79.2172 201° Southwest 329 379 19,600 -1,920 Descending Jacksonville Center
09:51AM 33.7569 -79.2606 204° Southwest 324 373 17,600 -1,920 Descending Jacksonville Center
09:52AM 33.6939 -79.3106 213° Southwest 316 364 15,800 -1,740 Descending Jacksonville Center
09:53AM 33.6222 -79.3633 212° Southwest 310 357 14,200 -1,620 Descending Jacksonville Center
09:54AM 33.5486 -79.4161 211° Southwest 310 357 12,600 -1,560 Descending Jacksonville Center
09:55AM 33.4750 -79.4739 213° Southwest 318 366 11,100 -840 Descending Jacksonville Center
09:56AM 33.3992 -79.5289 211° Southwest 318 366 11,000 -60 Descending Jacksonville Center
09:57AM 33.3297 -79.5814 212° Southwest 312 359 11,000 -780 Level Jacksonville Center
09:58AM 33.2553 -79.6089 197° South 297 342 9,500 -1,740 Descending Jacksonville Center
09:59AM 33.1808 -79.6339 196° South 286 329 7,600 -1,680 Descending Jacksonville Center
10:00AM 33.1083 -79.6539 193° South 276 318 6,200 -1,260 Descending Jacksonville Center
10:01AM 33.0419 -79.6711 192° South 264 304 5,100 -1,140 Descending Jacksonville Center
10:02AM 32.9714 -79.6911 193° South 251 289 4,000 -600 Descending Jacksonville Center
10:03AM 32.9092 -79.7081 193° South 240 276 4,000  Level Jacksonville Center
10:04AM 32.8472 -79.7253 193° South 240 276 4,000  Level Jacksonville Center
10:06AM 32.8994 -79.8985 293° West  Level FlightAware Approximate
10:13AM 32.8833 -80.0333 348° North  Level FlightAware Approximate